sensor_id;sensor_type;location;lat;lon;timestamp;temperature;humidity
15359;DHT22;7779;49.596;11.070;2024-02-28T00:00:38;7.40;66.40
15359;DHT22;7779;49.596;11.070;2024-02-28T00:03:05;7.40;66.30
15359;DHT22;7779;49.596;11.070;2024-02-28T00:05:31;7.40;66.60
15359;DHT22;7779;49.596;11.070;2024-02-28T00:07:57;7.40;66.10
15359;DHT22;7779;49.596;11.070;2024-02-28T00:10:23;7.40;66.90
15359;DHT22;7779;49.596;11.070;2024-02-28T00:12:48;7.40;66.20
15359;DHT22;7779;49.596;11.070;2024-02-28T00:15:14;7.40;66.20
15359;DHT22;7779;49.596;11.070;2024-02-28T00:17:41;7.40;66.20
15359;DHT22;7779;49.596;11.070;2024-02-28T00:20:07;7.40;66.20
15359;DHT22;7779;49.596;11.070;2024-02-28T00:22:36;7.40;66.10
15359;DHT22;7779;49.596;11.070;2024-02-28T00:25:05;7.40;66.10
15359;DHT22;7779;49.596;11.070;2024-02-28T00:27:32;7.40;66.10
15359;DHT22;7779;49.596;11.070;2024-02-28T00:29:59;7.40;66.10
15359;DHT22;7779;49.596;11.070;2024-02-28T00:32:25;7.40;66.10
15359;DHT22;7779;49.596;11.070;2024-02-28T00:34:51;7.40;66.10
15359;DHT22;7779;49.596;11.070;2024-02-28T00:37:17;7.40;66.10
15359;DHT22;7779;49.596;11.070;2024-02-28T00:39:44;7.40;66.10
15359;DHT22;7779;49.596;11.070;2024-02-28T00:42:10;7.40;66.10
15359;DHT22;7779;49.596;11.070;2024-02-28T00:44:36;7.40;66.00
15359;DHT22;7779;49.596;11.070;2024-02-28T00:47:02;7.40;66.00
15359;DHT22;7779;49.596;11.070;2024-02-28T00:49:27;7.40;66.10
15359;DHT22;7779;49.596;11.070;2024-02-28T00:51:53;7.40;66.00
15359;DHT22;7779;49.596;11.070;2024-02-28T00:54:19;7.40;66.00
15359;DHT22;7779;49.596;11.070;2024-02-28T00:56:48;7.40;66.00
15359;DHT22;7779;49.596;11.070;2024-02-28T00:59:13;7.40;66.00
15359;DHT22;7779;49.596;11.070;2024-02-28T01:01:40;7.40;66.00
15359;DHT22;7779;49.596;11.070;2024-02-28T01:04:06;7.40;66.00
15359;DHT22;7779;49.596;11.070;2024-02-28T01:06:33;7.40;66.00
15359;DHT22;7779;49.596;11.070;2024-02-28T01:08:58;7.40;66.00
15359;DHT22;7779;49.596;11.070;2024-02-28T01:11:25;7.40;66.00
15359;DHT22;7779;49.596;11.070;2024-02-28T01:13:50;7.40;66.10
15359;DHT22;7779;49.596;11.070;2024-02-28T01:16:16;7.40;66.10
15359;DHT22;7779;49.596;11.070;2024-02-28T01:18:42;7.40;66.10
15359;DHT22;7779;49.596;11.070;2024-02-28T01:21:08;7.40;66.10
15359;DHT22;7779;49.596;11.070;2024-02-28T01:23:33;7.40;66.10
15359;DHT22;7779;49.596;11.070;2024-02-28T01:25:59;7.40;66.10
15359;DHT22;7779;49.596;11.070;2024-02-28T01:28:28;7.50;66.30
15359;DHT22;7779;49.596;11.070;2024-02-28T01:30:54;7.40;66.20
15359;DHT22;7779;49.596;11.070;2024-02-28T01:33:19;7.50;66.20
15359;DHT22;7779;49.596;11.070;2024-02-28T01:35:45;7.50;66.20
15359;DHT22;7779;49.596;11.070;2024-02-28T01:38:11;7.50;66.20
15359;DHT22;7779;49.596;11.070;2024-02-28T01:40:36;7.50;66.20
15359;DHT22;7779;49.596;11.070;2024-02-28T01:43:03;7.50;66.20
15359;DHT22;7779;49.596;11.070;2024-02-28T01:45:32;7.50;66.20
15359;DHT22;7779;49.596;11.070;2024-02-28T01:47:57;7.50;66.10
15359;DHT22;7779;49.596;11.070;2024-02-28T01:50:24;7.50;66.10
15359;DHT22;7779;49.596;11.070;2024-02-28T01:52:49;7.50;66.10
15359;DHT22;7779;49.596;11.070;2024-02-28T01:55:15;7.50;66.10
15359;DHT22;7779;49.596;11.070;2024-02-28T01:57:41;7.50;66.10
15359;DHT22;7779;49.596;11.070;2024-02-28T02:00:08;7.50;66.20
15359;DHT22;7779;49.596;11.070;2024-02-28T02:02:34;7.50;66.20
15359;DHT22;7779;49.596;11.070;2024-02-28T02:04:59;7.50;66.20
15359;DHT22;7779;49.596;11.070;2024-02-28T02:07:25;7.50;66.30
15359;DHT22;7779;49.596;11.070;2024-02-28T02:09:52;7.50;66.20
15359;DHT22;7779;49.596;11.070;2024-02-28T02:12:18;7.50;66.10
15359;DHT22;7779;49.596;11.070;2024-02-28T02:14:48;7.50;66.10
15359;DHT22;7779;49.596;11.070;2024-02-28T02:17:14;7.50;66.20
15359;DHT22;7779;49.596;11.070;2024-02-28T02:19:40;7.50;66.10
15359;DHT22;7779;49.596;11.070;2024-02-28T02:22:08;7.50;66.20
15359;DHT22;7779;49.596;11.070;2024-02-28T02:24:35;7.50;66.10
15359;DHT22;7779;49.596;11.070;2024-02-28T02:27:01;7.50;66.10
15359;DHT22;7779;49.596;11.070;2024-02-28T02:29:30;7.50;66.10
15359;DHT22;7779;49.596;11.070;2024-02-28T02:31:56;7.50;66.10
15359;DHT22;7779;49.596;11.070;2024-02-28T02:34:22;7.40;66.10
15359;DHT22;7779;49.596;11.070;2024-02-28T02:36:47;7.40;66.10
15359;DHT22;7779;49.596;11.070;2024-02-28T02:39:13;7.40;66.00
15359;DHT22;7779;49.596;11.070;2024-02-28T02:41:39;7.40;66.10
15359;DHT22;7779;49.596;11.070;2024-02-28T02:44:07;7.40;66.10
15359;DHT22;7779;49.596;11.070;2024-02-28T02:46:33;7.40;66.10
15359;DHT22;7779;49.596;11.070;2024-02-28T02:48:59;7.40;66.20
15359;DHT22;7779;49.596;11.070;2024-02-28T02:51:24;7.40;66.20
15359;DHT22;7779;49.596;11.070;2024-02-28T02:53:51;7.30;66.20
15359;DHT22;7779;49.596;11.070;2024-02-28T02:56:17;7.40;66.30
15359;DHT22;7779;49.596;11.070;2024-02-28T02:58:43;7.40;66.30
15359;DHT22;7779;49.596;11.070;2024-02-28T03:01:08;7.40;66.20
15359;DHT22;7779;49.596;11.070;2024-02-28T03:03:34;7.40;66.20
15359;DHT22;7779;49.596;11.070;2024-02-28T03:06:00;7.40;66.30
15359;DHT22;7779;49.596;11.070;2024-02-28T03:08:26;7.40;66.30
15359;DHT22;7779;49.596;11.070;2024-02-28T03:10:52;7.40;66.30
15359;DHT22;7779;49.596;11.070;2024-02-28T03:13:17;7.40;66.30
15359;DHT22;7779;49.596;11.070;2024-02-28T03:15:44;7.40;66.20
15359;DHT22;7779;49.596;11.070;2024-02-28T03:18:09;7.40;66.20
15359;DHT22;7779;49.596;11.070;2024-02-28T03:20:35;7.40;66.30
15359;DHT22;7779;49.596;11.070;2024-02-28T03:23:04;7.40;66.20
15359;DHT22;7779;49.596;11.070;2024-02-28T03:25:32;7.40;66.30
15359;DHT22;7779;49.596;11.070;2024-02-28T03:27:58;7.40;66.30
15359;DHT22;7779;49.596;11.070;2024-02-28T03:30:25;7.40;66.30
15359;DHT22;7779;49.596;11.070;2024-02-28T03:32:51;7.40;66.30
15359;DHT22;7779;49.596;11.070;2024-02-28T03:35:16;7.40;66.40
15359;DHT22;7779;49.596;11.070;2024-02-28T03:37:42;7.40;66.40
15359;DHT22;7779;49.596;11.070;2024-02-28T03:40:08;7.40;66.40
15359;DHT22;7779;49.596;11.070;2024-02-28T03:42:34;7.50;66.40
15359;DHT22;7779;49.596;11.070;2024-02-28T03:45:00;7.40;66.30
15359;DHT22;7779;49.596;11.070;2024-02-28T03:47:25;7.40;66.40
15359;DHT22;7779;49.596;11.070;2024-02-28T03:49:51;7.40;66.40
15359;DHT22;7779;49.596;11.070;2024-02-28T03:52:17;7.40;66.30
15359;DHT22;7779;49.596;11.070;2024-02-28T03:54:43;7.40;66.30
15359;DHT22;7779;49.596;11.070;2024-02-28T03:57:10;7.40;66.20
15359;DHT22;7779;49.596;11.070;2024-02-28T03:59:36;7.40;66.30
15359;DHT22;7779;49.596;11.070;2024-02-28T04:02:02;7.40;66.40
15359;DHT22;7779;49.596;11.070;2024-02-28T04:04:27;7.40;66.40
15359;DHT22;7779;49.596;11.070;2024-02-28T04:06:53;7.40;66.50
15359;DHT22;7779;49.596;11.070;2024-02-28T04:09:19;7.40;66.50
15359;DHT22;7779;49.596;11.070;2024-02-28T04:11:45;7.40;66.40
15359;DHT22;7779;49.596;11.070;2024-02-28T04:14:11;7.40;66.40
15359;DHT22;7779;49.596;11.070;2024-02-28T04:16:44;7.40;66.40
15359;DHT22;7779;49.596;11.070;2024-02-28T04:19:10;7.40;66.50
15359;DHT22;7779;49.596;11.070;2024-02-28T04:21:37;7.40;66.40
15359;DHT22;7779;49.596;11.070;2024-02-28T04:24:04;7.40;66.40
15359;DHT22;7779;49.596;11.070;2024-02-28T04:26:31;7.40;66.50
15359;DHT22;7779;49.596;11.070;2024-02-28T04:28:57;7.40;66.50
15359;DHT22;7779;49.596;11.070;2024-02-28T04:31:22;7.40;66.50
15359;DHT22;7779;49.596;11.070;2024-02-28T04:33:48;7.40;66.50
15359;DHT22;7779;49.596;11.070;2024-02-28T04:36:14;7.40;66.50
15359;DHT22;7779;49.596;11.070;2024-02-28T04:38:41;7.40;66.50
15359;DHT22;7779;49.596;11.070;2024-02-28T04:41:07;7.40;66.50
15359;DHT22;7779;49.596;11.070;2024-02-28T04:43:33;7.40;66.50
15359;DHT22;7779;49.596;11.070;2024-02-28T04:45:58;7.40;66.50
15359;DHT22;7779;49.596;11.070;2024-02-28T04:48:24;7.40;66.50
15359;DHT22;7779;49.596;11.070;2024-02-28T04:50:52;7.40;66.50
15359;DHT22;7779;49.596;11.070;2024-02-28T04:53:17;7.40;66.50
15359;DHT22;7779;49.596;11.070;2024-02-28T04:55:43;7.30;66.40
15359;DHT22;7779;49.596;11.070;2024-02-28T04:58:09;7.30;66.50
15359;DHT22;7779;49.596;11.070;2024-02-28T05:00:34;7.30;66.60
15359;DHT22;7779;49.596;11.070;2024-02-28T05:03:00;7.30;66.50
15359;DHT22;7779;49.596;11.070;2024-02-28T05:05:26;7.30;66.60
15359;DHT22;7779;49.596;11.070;2024-02-28T05:07:52;7.30;66.50
15359;DHT22;7779;49.596;11.070;2024-02-28T05:10:17;7.30;66.60
15359;DHT22;7779;49.596;11.070;2024-02-28T05:12:43;7.30;66.50
15359;DHT22;7779;49.596;11.070;2024-02-28T05:15:09;7.30;66.60
15359;DHT22;7779;49.596;11.070;2024-02-28T05:17:35;7.30;66.60
15359;DHT22;7779;49.596;11.070;2024-02-28T05:20:01;7.30;66.70
15359;DHT22;7779;49.596;11.070;2024-02-28T05:22:26;7.30;66.70
15359;DHT22;7779;49.596;11.070;2024-02-28T05:24:52;7.30;66.80
15359;DHT22;7779;49.596;11.070;2024-02-28T05:27:19;7.30;66.80
15359;DHT22;7779;49.596;11.070;2024-02-28T05:29:45;7.30;66.80
15359;DHT22;7779;49.596;11.070;2024-02-28T05:32:10;7.30;66.80
15359;DHT22;7779;49.596;11.070;2024-02-28T05:34:37;7.30;66.70
15359;DHT22;7779;49.596;11.070;2024-02-28T05:37:02;7.30;66.70
15359;DHT22;7779;49.596;11.070;2024-02-28T05:39:28;7.30;67.40
15359;DHT22;7779;49.596;11.070;2024-02-28T05:41:55;7.30;66.90
15359;DHT22;7779;49.596;11.070;2024-02-28T05:44:20;7.30;66.90
15359;DHT22;7779;49.596;11.070;2024-02-28T05:46:46;7.30;66.90
15359;DHT22;7779;49.596;11.070;2024-02-28T05:49:12;7.30;66.80
15359;DHT22;7779;49.596;11.070;2024-02-28T05:51:37;7.30;66.90
15359;DHT22;7779;49.596;11.070;2024-02-28T05:54:03;7.30;66.90
15359;DHT22;7779;49.596;11.070;2024-02-28T05:56:29;7.30;66.90
15359;DHT22;7779;49.596;11.070;2024-02-28T05:58:55;7.40;67.00
15359;DHT22;7779;49.596;11.070;2024-02-28T06:01:21;7.40;67.00
15359;DHT22;7779;49.596;11.070;2024-02-28T06:03:50;7.40;67.00
15359;DHT22;7779;49.596;11.070;2024-02-28T06:06:16;7.40;67.10
15359;DHT22;7779;49.596;11.070;2024-02-28T06:08:43;7.40;67.00
15359;DHT22;7779;49.596;11.070;2024-02-28T06:11:09;7.40;67.00
15359;DHT22;7779;49.596;11.070;2024-02-28T06:13:36;7.40;67.10
15359;DHT22;7779;49.596;11.070;2024-02-28T06:16:02;7.40;67.10
15359;DHT22;7779;49.596;11.070;2024-02-28T06:18:29;7.40;67.10
15359;DHT22;7779;49.596;11.070;2024-02-28T06:20:59;7.40;67.10
15359;DHT22;7779;49.596;11.070;2024-02-28T06:23:26;7.40;67.00
15359;DHT22;7779;49.596;11.070;2024-02-28T06:25:53;7.40;67.00
15359;DHT22;7779;49.596;11.070;2024-02-28T06:28:18;7.40;67.10
15359;DHT22;7779;49.596;11.070;2024-02-28T06:30:44;7.50;67.20
15359;DHT22;7779;49.596;11.070;2024-02-28T06:33:14;7.50;67.20
15359;DHT22;7779;49.596;11.070;2024-02-28T06:35:40;7.50;67.20
15359;DHT22;7779;49.596;11.070;2024-02-28T06:38:06;7.50;67.20
15359;DHT22;7779;49.596;11.070;2024-02-28T06:40:33;7.50;67.20
15359;DHT22;7779;49.596;11.070;2024-02-28T06:43:00;7.50;67.20
15359;DHT22;7779;49.596;11.070;2024-02-28T06:45:26;7.50;67.20
15359;DHT22;7779;49.596;11.070;2024-02-28T06:47:52;7.50;67.10
15359;DHT22;7779;49.596;11.070;2024-02-28T06:50:18;7.50;67.10
15359;DHT22;7779;49.596;11.070;2024-02-28T06:52:43;7.50;67.00
15359;DHT22;7779;49.596;11.070;2024-02-28T06:55:09;7.50;67.10
15359;DHT22;7779;49.596;11.070;2024-02-28T06:57:42;7.50;67.00
15359;DHT22;7779;49.596;11.070;2024-02-28T07:00:10;7.50;67.10
15359;DHT22;7779;49.596;11.070;2024-02-28T07:02:44;7.50;67.10
15359;DHT22;7779;49.596;11.070;2024-02-28T07:05:10;7.50;67.70
15359;DHT22;7779;49.596;11.070;2024-02-28T07:07:36;7.50;67.10
15359;DHT22;7779;49.596;11.070;2024-02-28T07:10:03;7.60;67.40
15359;DHT22;7779;49.596;11.070;2024-02-28T07:12:30;7.60;67.40
15359;DHT22;7779;49.596;11.070;2024-02-28T07:14:55;7.60;67.40
15359;DHT22;7779;49.596;11.070;2024-02-28T07:17:21;7.60;67.40
15359;DHT22;7779;49.596;11.070;2024-02-28T07:19:47;7.60;67.40
15359;DHT22;7779;49.596;11.070;2024-02-28T07:22:13;7.70;67.40
15359;DHT22;7779;49.596;11.070;2024-02-28T07:24:39;7.70;67.40
15359;DHT22;7779;49.596;11.070;2024-02-28T07:27:05;7.70;67.40
15359;DHT22;7779;49.596;11.070;2024-02-28T07:29:30;7.80;67.60
15359;DHT22;7779;49.596;11.070;2024-02-28T07:31:56;7.80;67.50
15359;DHT22;7779;49.596;11.070;2024-02-28T07:34:22;7.80;67.50
15359;DHT22;7779;49.596;11.070;2024-02-28T07:36:48;7.80;67.40
15359;DHT22;7779;49.596;11.070;2024-02-28T07:39:13;7.90;67.40
15359;DHT22;7779;49.596;11.070;2024-02-28T07:41:39;7.90;67.40
15359;DHT22;7779;49.596;11.070;2024-02-28T07:44:07;8.00;67.50
15359;DHT22;7779;49.596;11.070;2024-02-28T07:46:34;8.00;67.40
15359;DHT22;7779;49.596;11.070;2024-02-28T07:49:00;8.00;67.30
15359;DHT22;7779;49.596;11.070;2024-02-28T07:51:26;8.00;67.30
15359;DHT22;7779;49.596;11.070;2024-02-28T07:53:52;8.10;67.30
15359;DHT22;7779;49.596;11.070;2024-02-28T07:56:19;8.10;67.30
15359;DHT22;7779;49.596;11.070;2024-02-28T07:58:46;8.10;67.20
15359;DHT22;7779;49.596;11.070;2024-02-28T08:01:12;8.10;67.10
15359;DHT22;7779;49.596;11.070;2024-02-28T08:03:37;8.10;67.10
15359;DHT22;7779;49.596;11.070;2024-02-28T08:06:04;8.10;67.00
15359;DHT22;7779;49.596;11.070;2024-02-28T08:08:29;8.20;67.10
15359;DHT22;7779;49.596;11.070;2024-02-28T08:10:55;8.20;67.00
15359;DHT22;7779;49.596;11.070;2024-02-28T08:13:21;8.20;67.00
15359;DHT22;7779;49.596;11.070;2024-02-28T08:15:47;8.20;66.90
15359;DHT22;7779;49.596;11.070;2024-02-28T08:18:12;8.20;66.80
15359;DHT22;7779;49.596;11.070;2024-02-28T08:20:38;8.20;66.70
15359;DHT22;7779;49.596;11.070;2024-02-28T08:23:05;8.20;66.60
15359;DHT22;7779;49.596;11.070;2024-02-28T08:25:31;8.20;66.60
15359;DHT22;7779;49.596;11.070;2024-02-28T08:27:57;8.20;66.60
15359;DHT22;7779;49.596;11.070;2024-02-28T08:30:23;8.20;66.60
15359;DHT22;7779;49.596;11.070;2024-02-28T08:32:49;8.20;66.60
15359;DHT22;7779;49.596;11.070;2024-02-28T08:35:16;8.20;66.60
15359;DHT22;7779;49.596;11.070;2024-02-28T08:37:44;8.20;66.70
15359;DHT22;7779;49.596;11.070;2024-02-28T08:40:10;8.30;66.80
15359;DHT22;7779;49.596;11.070;2024-02-28T08:42:37;8.30;66.60
15359;DHT22;7779;49.596;11.070;2024-02-28T08:45:03;8.30;66.50
15359;DHT22;7779;49.596;11.070;2024-02-28T08:47:29;8.30;66.50
15359;DHT22;7779;49.596;11.070;2024-02-28T08:49:55;8.30;66.50
15359;DHT22;7779;49.596;11.070;2024-02-28T08:52:21;8.30;66.40
15359;DHT22;7779;49.596;11.070;2024-02-28T08:54:47;8.30;66.30
15359;DHT22;7779;49.596;11.070;2024-02-28T08:57:14;8.30;66.40
15359;DHT22;7779;49.596;11.070;2024-02-28T08:59:40;8.30;66.40
15359;DHT22;7779;49.596;11.070;2024-02-28T09:02:06;8.30;66.30
15359;DHT22;7779;49.596;11.070;2024-02-28T09:04:33;8.30;66.30
15359;DHT22;7779;49.596;11.070;2024-02-28T09:06:59;8.30;66.30
15359;DHT22;7779;49.596;11.070;2024-02-28T09:09:24;8.20;66.20
15359;DHT22;7779;49.596;11.070;2024-02-28T09:11:50;8.30;66.30
15359;DHT22;7779;49.596;11.070;2024-02-28T09:14:16;8.20;66.30
15359;DHT22;7779;49.596;11.070;2024-02-28T09:16:42;8.30;66.40
15359;DHT22;7779;49.596;11.070;2024-02-28T09:19:07;8.30;66.50
15359;DHT22;7779;49.596;11.070;2024-02-28T09:21:33;8.30;66.50
15359;DHT22;7779;49.596;11.070;2024-02-28T09:23:59;8.30;66.60
15359;DHT22;7779;49.596;11.070;2024-02-28T09:26:25;8.30;66.60
15359;DHT22;7779;49.596;11.070;2024-02-28T09:28:51;8.40;66.70
15359;DHT22;7779;49.596;11.070;2024-02-28T09:31:18;8.40;66.70
15359;DHT22;7779;49.596;11.070;2024-02-28T09:33:43;8.40;66.60
15359;DHT22;7779;49.596;11.070;2024-02-28T09:36:10;8.50;66.70
15359;DHT22;7779;49.596;11.070;2024-02-28T09:38:37;8.50;66.60
15359;DHT22;7779;49.596;11.070;2024-02-28T09:41:03;8.50;66.60
15359;DHT22;7779;49.596;11.070;2024-02-28T09:43:40;8.50;66.50
15359;DHT22;7779;49.596;11.070;2024-02-28T09:46:07;8.60;66.50
15359;DHT22;7779;49.596;11.070;2024-02-28T09:48:39;8.60;66.50
15359;DHT22;7779;49.596;11.070;2024-02-28T09:51:08;8.60;66.50
15359;DHT22;7779;49.596;11.070;2024-02-28T09:53:38;8.70;66.60
15359;DHT22;7779;49.596;11.070;2024-02-28T09:56:06;8.70;66.60
15359;DHT22;7779;49.596;11.070;2024-02-28T09:58:32;8.70;66.50
15359;DHT22;7779;49.596;11.070;2024-02-28T10:01:02;8.70;66.50
15359;DHT22;7779;49.596;11.070;2024-02-28T10:03:30;8.80;66.50
15359;DHT22;7779;49.596;11.070;2024-02-28T10:05:57;8.80;66.40
15359;DHT22;7779;49.596;11.070;2024-02-28T10:08:23;8.90;66.40
15359;DHT22;7779;49.596;11.070;2024-02-28T10:10:49;8.90;66.40
15359;DHT22;7779;49.596;11.070;2024-02-28T10:13:19;8.90;66.40
15359;DHT22;7779;49.596;11.070;2024-02-28T10:15:45;9.00;66.50
15359;DHT22;7779;49.596;11.070;2024-02-28T10:18:11;9.00;66.50
15359;DHT22;7779;49.596;11.070;2024-02-28T10:20:37;9.10;66.50
15359;DHT22;7779;49.596;11.070;2024-02-28T10:23:07;9.10;66.30
15359;DHT22;7779;49.596;11.070;2024-02-28T10:25:46;9.10;66.30
15359;DHT22;7779;49.596;11.070;2024-02-28T10:28:13;9.20;66.20
15359;DHT22;7779;49.596;11.070;2024-02-28T10:30:43;9.20;66.30
15359;DHT22;7779;49.596;11.070;2024-02-28T10:33:13;9.20;66.30
15359;DHT22;7779;49.596;11.070;2024-02-28T10:35:43;9.30;66.40
15359;DHT22;7779;49.596;11.070;2024-02-28T10:38:12;9.30;66.40
15359;DHT22;7779;49.596;11.070;2024-02-28T10:40:42;9.40;66.40
15359;DHT22;7779;49.596;11.070;2024-02-28T10:43:08;9.50;66.30
15359;DHT22;7779;49.596;11.070;2024-02-28T10:45:38;9.50;66.30
15359;DHT22;7779;49.596;11.070;2024-02-28T10:48:05;9.60;66.70
15359;DHT22;7779;49.596;11.070;2024-02-28T10:50:32;9.60;66.40
15359;DHT22;7779;49.596;11.070;2024-02-28T10:53:02;9.70;66.40
15359;DHT22;7779;49.596;11.070;2024-02-28T10:55:38;9.70;66.10
15359;DHT22;7779;49.596;11.070;2024-02-28T10:58:09;9.80;65.20
15359;DHT22;7779;49.596;11.070;2024-02-28T11:00:36;9.80;66.00
15359;DHT22;7779;49.596;11.070;2024-02-28T11:03:07;9.90;66.00
15359;DHT22;7779;49.596;11.070;2024-02-28T11:05:36;9.90;65.80
15359;DHT22;7779;49.596;11.070;2024-02-28T11:08:05;10.00;64.90
15359;DHT22;7779;49.596;11.070;2024-02-28T11:10:41;10.00;64.90
15359;DHT22;7779;49.596;11.070;2024-02-28T11:13:21;10.00;64.60
15359;DHT22;7779;49.596;11.070;2024-02-28T11:15:51;10.10;64.40
15359;DHT22;7779;49.596;11.070;2024-02-28T11:18:18;10.20;65.00
15359;DHT22;7779;49.596;11.070;2024-02-28T11:20:44;10.20;64.90
15359;DHT22;7779;49.596;11.070;2024-02-28T11:23:13;10.30;64.80
15359;DHT22;7779;49.596;11.070;2024-02-28T11:25:40;10.30;64.70
15359;DHT22;7779;49.596;11.070;2024-02-28T11:28:07;10.40;63.70
15359;DHT22;7779;49.596;11.070;2024-02-28T11:30:33;10.40;64.70
15359;DHT22;7779;49.596;11.070;2024-02-28T11:32:59;10.50;64.60
15359;DHT22;7779;49.596;11.070;2024-02-28T11:35:28;10.60;64.60
15359;DHT22;7779;49.596;11.070;2024-02-28T11:37:55;10.70;64.50
15359;DHT22;7779;49.596;11.070;2024-02-28T11:40:23;10.70;64.30
15359;DHT22;7779;49.596;11.070;2024-02-28T11:42:53;10.80;64.30
15359;DHT22;7779;49.596;11.070;2024-02-28T11:45:20;10.80;64.10
15359;DHT22;7779;49.596;11.070;2024-02-28T11:47:46;10.90;64.10
15359;DHT22;7779;49.596;11.070;2024-02-28T11:50:13;11.00;64.30
15359;DHT22;7779;49.596;11.070;2024-02-28T11:52:40;11.00;64.10
15359;DHT22;7779;49.596;11.070;2024-02-28T11:55:06;11.10;65.00
15359;DHT22;7779;49.596;11.070;2024-02-28T11:57:32;11.20;64.10
15359;DHT22;7779;49.596;11.070;2024-02-28T12:00:03;11.20;63.90
15359;DHT22;7779;49.596;11.070;2024-02-28T12:02:33;11.30;63.60
15359;DHT22;7779;49.596;11.070;2024-02-28T12:05:02;11.30;63.80
15359;DHT22;7779;49.596;11.070;2024-02-28T12:07:32;11.40;63.60
15359;DHT22;7779;49.596;11.070;2024-02-28T12:09:59;11.40;63.80
15359;DHT22;7779;49.596;11.070;2024-02-28T12:12:27;11.50;63.70
15359;DHT22;7779;49.596;11.070;2024-02-28T12:14:57;11.60;63.50
15359;DHT22;7779;49.596;11.070;2024-02-28T12:17:25;11.60;63.20
15359;DHT22;7779;49.596;11.070;2024-02-28T12:19:52;11.60;62.90
15359;DHT22;7779;49.596;11.070;2024-02-28T12:22:18;11.60;62.70
15359;DHT22;7779;49.596;11.070;2024-02-28T12:24:44;11.60;62.50
15359;DHT22;7779;49.596;11.070;2024-02-28T12:27:10;11.60;62.60
15359;DHT22;7779;49.596;11.070;2024-02-28T12:29:35;11.70;62.80
15359;DHT22;7779;49.596;11.070;2024-02-28T12:32:02;11.60;62.70
15359;DHT22;7779;49.596;11.070;2024-02-28T12:34:28;11.70;62.70
15359;DHT22;7779;49.596;11.070;2024-02-28T12:36:53;11.70;62.50
15359;DHT22;7779;49.596;11.070;2024-02-28T12:39:19;11.70;62.40
15359;DHT22;7779;49.596;11.070;2024-02-28T12:41:45;11.70;62.20
15359;DHT22;7779;49.596;11.070;2024-02-28T12:44:11;11.70;62.10
15359;DHT22;7779;49.596;11.070;2024-02-28T12:46:37;11.80;62.10
15359;DHT22;7779;49.596;11.070;2024-02-28T12:49:03;11.80;61.80
15359;DHT22;7779;49.596;11.070;2024-02-28T12:51:43;11.80;61.70
15359;DHT22;7779;49.596;11.070;2024-02-28T12:54:11;11.80;61.00
15359;DHT22;7779;49.596;11.070;2024-02-28T12:56:41;11.70;60.00
15359;DHT22;7779;49.596;11.070;2024-02-28T12:59:10;11.80;61.60
15359;DHT22;7779;49.596;11.070;2024-02-28T13:01:36;11.70;61.40
15359;DHT22;7779;49.596;11.070;2024-02-28T13:04:02;11.70;61.40
15359;DHT22;7779;49.596;11.070;2024-02-28T13:06:28;11.70;61.30
15359;DHT22;7779;49.596;11.070;2024-02-28T13:08:54;11.70;61.60
15359;DHT22;7779;49.596;11.070;2024-02-28T13:11:22;11.80;61.80
15359;DHT22;7779;49.596;11.070;2024-02-28T13:13:49;11.80;61.80
15359;DHT22;7779;49.596;11.070;2024-02-28T13:16:19;11.80;61.80
15359;DHT22;7779;49.596;11.070;2024-02-28T13:18:47;11.90;61.60
15359;DHT22;7779;49.596;11.070;2024-02-28T13:21:12;11.90;61.70
15359;DHT22;7779;49.596;11.070;2024-02-28T13:23:39;12.00;61.60
15359;DHT22;7779;49.596;11.070;2024-02-28T13:26:05;12.00;61.30
15359;DHT22;7779;49.596;11.070;2024-02-28T13:28:31;12.00;61.10
15359;DHT22;7779;49.596;11.070;2024-02-28T13:30:59;12.00;60.80
15359;DHT22;7779;49.596;11.070;2024-02-28T13:33:26;12.00;60.70
15359;DHT22;7779;49.596;11.070;2024-02-28T13:35:53;12.00;60.70
15359;DHT22;7779;49.596;11.070;2024-02-28T13:38:20;12.00;60.50
15359;DHT22;7779;49.596;11.070;2024-02-28T13:40:49;12.00;60.50
15359;DHT22;7779;49.596;11.070;2024-02-28T13:43:16;11.90;60.40
15359;DHT22;7779;49.596;11.070;2024-02-28T13:45:47;11.90;60.60
15359;DHT22;7779;49.596;11.070;2024-02-28T13:48:19;11.90;60.40
15359;DHT22;7779;49.596;11.070;2024-02-28T13:50:54;11.90;60.20
15359;DHT22;7779;49.596;11.070;2024-02-28T13:53:20;11.90;60.10
15359;DHT22;7779;49.596;11.070;2024-02-28T13:55:46;11.90;60.00
15359;DHT22;7779;49.596;11.070;2024-02-28T13:58:12;11.80;59.90
15359;DHT22;7779;49.596;11.070;2024-02-28T14:00:39;11.80;59.80
15359;DHT22;7779;49.596;11.070;2024-02-28T14:03:05;11.90;59.80
15359;DHT22;7779;49.596;11.070;2024-02-28T14:05:32;11.80;59.60
15359;DHT22;7779;49.596;11.070;2024-02-28T14:07:58;11.80;59.60
15359;DHT22;7779;49.596;11.070;2024-02-28T14:10:24;11.70;59.50
15359;DHT22;7779;49.596;11.070;2024-02-28T14:12:51;11.70;59.40
15359;DHT22;7779;49.596;11.070;2024-02-28T14:15:20;11.70;59.20
15359;DHT22;7779;49.596;11.070;2024-02-28T14:17:46;11.70;59.20
15359;DHT22;7779;49.596;11.070;2024-02-28T14:20:12;11.60;59.00
15359;DHT22;7779;49.596;11.070;2024-02-28T14:22:38;11.60;59.00
15359;DHT22;7779;49.596;11.070;2024-02-28T14:25:11;11.50;58.90
15359;DHT22;7779;49.596;11.070;2024-02-28T14:27:39;11.50;59.00
15359;DHT22;7779;49.596;11.070;2024-02-28T14:30:08;11.50;59.20
15359;DHT22;7779;49.596;11.070;2024-02-28T14:32:35;11.40;59.00
15359;DHT22;7779;49.596;11.070;2024-02-28T14:35:03;11.40;59.10
15359;DHT22;7779;49.596;11.070;2024-02-28T14:37:30;11.40;59.10
15359;DHT22;7779;49.596;11.070;2024-02-28T14:39:56;11.40;59.20
15359;DHT22;7779;49.596;11.070;2024-02-28T14:42:22;11.40;59.30
15359;DHT22;7779;49.596;11.070;2024-02-28T14:44:48;11.40;59.30
15359;DHT22;7779;49.596;11.070;2024-02-28T14:47:14;11.40;59.30
15359;DHT22;7779;49.596;11.070;2024-02-28T14:49:39;11.40;59.30
15359;DHT22;7779;49.596;11.070;2024-02-28T14:52:05;11.40;59.20
15359;DHT22;7779;49.596;11.070;2024-02-28T14:54:31;11.40;59.10
15359;DHT22;7779;49.596;11.070;2024-02-28T14:56:57;11.40;59.10
15359;DHT22;7779;49.596;11.070;2024-02-28T14:59:22;11.40;58.90
15359;DHT22;7779;49.596;11.070;2024-02-28T15:01:49;11.30;58.80
15359;DHT22;7779;49.596;11.070;2024-02-28T15:04:15;11.30;58.70
15359;DHT22;7779;49.596;11.070;2024-02-28T15:06:41;11.30;58.70
15359;DHT22;7779;49.596;11.070;2024-02-28T15:09:07;11.30;58.70
15359;DHT22;7779;49.596;11.070;2024-02-28T15:11:34;11.20;58.50
15359;DHT22;7779;49.596;11.070;2024-02-28T15:14:00;11.20;58.50
15359;DHT22;7779;49.596;11.070;2024-02-28T15:16:26;11.20;58.50
15359;DHT22;7779;49.596;11.070;2024-02-28T15:18:52;11.10;58.40
15359;DHT22;7779;49.596;11.070;2024-02-28T15:21:18;11.10;58.40
15359;DHT22;7779;49.596;11.070;2024-02-28T15:23:44;11.00;58.40
15359;DHT22;7779;49.596;11.070;2024-02-28T15:26:09;11.00;58.30
15359;DHT22;7779;49.596;11.070;2024-02-28T15:28:35;10.90;58.30
15359;DHT22;7779;49.596;11.070;2024-02-28T15:31:01;10.90;58.40
15359;DHT22;7779;49.596;11.070;2024-02-28T15:33:27;10.90;58.50
15359;DHT22;7779;49.596;11.070;2024-02-28T15:35:53;10.90;58.50
15359;DHT22;7779;49.596;11.070;2024-02-28T15:38:20;10.80;58.50